sensor_id;sensor_type;location;lat;lon;timestamp;P1;durP1;ratioP1;P2;durP2;ratioP2
13991;SDS011;7070;53.586;9.692;2023-05-21T00:00:19;0.47;;;0.47;;
13991;SDS011;7070;53.586;9.692;2023-05-21T00:02:46;0.50;;;0.50;;
13991;SDS011;7070;53.586;9.692;2023-05-21T00:05:13;0.50;;;0.50;;
13991;SDS011;7070;53.586;9.692;2023-05-21T00:07:43;0.40;;;0.40;;
13991;SDS011;7070;53.586;9.692;2023-05-21T00:10:11;0.60;;;0.60;;
13991;SDS011;7070;53.586;9.692;2023-05-21T00:12:38;0.50;;;0.50;;
13991;SDS011;7070;53.586;9.692;2023-05-21T00:15:06;0.50;;;0.50;;
13991;SDS011;7070;53.586;9.692;2023-05-21T00:17:33;0.50;;;0.50;;
13991;SDS011;7070;53.586;9.692;2023-05-21T00:20:01;0.40;;;0.40;;
13991;SDS011;7070;53.586;9.692;2023-05-21T00:22:29;0.50;;;0.50;;
13991;SDS011;7070;53.586;9.692;2023-05-21T00:24:58;0.40;;;0.40;;
13991;SDS011;7070;53.586;9.692;2023-05-21T00:27:25;0.50;;;0.50;;
13991;SDS011;7070;53.586;9.692;2023-05-21T00:29:52;0.40;;;0.40;;
13991;SDS011;7070;53.586;9.692;2023-05-21T00:32:19;0.50;;;0.50;;
13991;SDS011;7070;53.586;9.692;2023-05-21T00:34:46;0.40;;;0.40;;
13991;SDS011;7070;53.586;9.692;2023-05-21T00:37:13;0.50;;;0.50;;
13991;SDS011;7070;53.586;9.692;2023-05-21T00:39:40;0.50;;;0.50;;
13991;SDS011;7070;53.586;9.692;2023-05-21T00:42:08;0.50;;;0.50;;
13991;SDS011;7070;53.586;9.692;2023-05-21T00:44:36;0.50;;;0.50;;
13991;SDS011;7070;53.586;9.692;2023-05-21T00:47:03;0.50;;;0.50;;
13991;SDS011;7070;53.586;9.692;2023-05-21T00:49:32;0.50;;;0.50;;
13991;SDS011;7070;53.586;9.692;2023-05-21T00:51:59;0.50;;;0.50;;
13991;SDS011;7070;53.586;9.692;2023-05-21T00:54:26;0.50;;;0.50;;
13991;SDS011;7070;53.586;9.692;2023-05-21T00:56:54;0.50;;;0.50;;
13991;SDS011;7070;53.586;9.692;2023-05-21T00:59:23;0.40;;;0.40;;
13991;SDS011;7070;53.586;9.692;2023-05-21T01:01:50;0.50;;;0.50;;
13991;SDS011;7070;53.586;9.692;2023-05-21T01:04:21;0.50;;;0.50;;
13991;SDS011;7070;53.586;9.692;2023-05-21T01:06:48;0.40;;;0.40;;
13991;SDS011;7070;53.586;9.692;2023-05-21T01:09:14;0.50;;;0.50;;
13991;SDS011;7070;53.586;9.692;2023-05-21T01:11:42;0.50;;;0.50;;
13991;SDS011;7070;53.586;9.692;2023-05-21T01:14:12;0.50;;;0.50;;
13991;SDS011;7070;53.586;9.692;2023-05-21T01:16:41;0.50;;;0.50;;
13991;SDS011;7070;53.586;9.692;2023-05-21T01:19:13;0.50;;;0.50;;
13991;SDS011;7070;53.586;9.692;2023-05-21T01:21:44;0.50;;;0.50;;
13991;SDS011;7070;53.586;9.692;2023-05-21T01:24:13;0.50;;;0.50;;
13991;SDS011;7070;53.586;9.692;2023-05-21T01:26:40;0.40;;;0.40;;
13991;SDS011;7070;53.586;9.692;2023-05-21T01:29:08;0.50;;;0.50;;
13991;SDS011;7070;53.586;9.692;2023-05-21T01:31:41;0.50;;;0.50;;
13991;SDS011;7070;53.586;9.692;2023-05-21T01:34:18;0.50;;;0.50;;
13991;SDS011;7070;53.586;9.692;2023-05-21T01:36:51;0.50;;;0.50;;
13991;SDS011;7070;53.586;9.692;2023-05-21T01:39:25;0.50;;;0.50;;
13991;SDS011;7070;53.586;9.692;2023-05-21T01:41:58;0.50;;;0.50;;
13991;SDS011;7070;53.586;9.692;2023-05-21T01:44:28;0.50;;;0.50;;
13991;SDS011;7070;53.586;9.692;2023-05-21T01:46:57;0.40;;;0.40;;
13991;SDS011;7070;53.586;9.692;2023-05-21T01:49:25;0.50;;;0.50;;
13991;SDS011;7070;53.586;9.692;2023-05-21T01:51:52;0.50;;;0.50;;
13991;SDS011;7070;53.586;9.692;2023-05-21T01:54:19;0.50;;;0.50;;
13991;SDS011;7070;53.586;9.692;2023-05-21T01:56:49;0.50;;;0.50;;
13991;SDS011;7070;53.586;9.692;2023-05-21T01:59:16;0.50;;;0.50;;
13991;SDS011;7070;53.586;9.692;2023-05-21T02:01:44;0.50;;;0.50;;
13991;SDS011;7070;53.586;9.692;2023-05-21T02:04:11;0.50;;;0.50;;
13991;SDS011;7070;53.586;9.692;2023-05-21T02:06:38;0.50;;;0.50;;
13991;SDS011;7070;53.586;9.692;2023-05-21T02:09:05;0.43;;;0.43;;
13991;SDS011;7070;53.586;9.692;2023-05-21T02:11:33;0.50;;;0.50;;
13991;SDS011;7070;53.586;9.692;2023-05-21T02:14:01;0.50;;;0.50;;
13991;SDS011;7070;53.586;9.692;2023-05-21T02:16:28;0.50;;;0.50;;
13991;SDS011;7070;53.586;9.692;2023-05-21T02:18:55;0.50;;;0.50;;
13991;SDS011;7070;53.586;9.692;2023-05-21T02:21:24;0.50;;;0.50;;
13991;SDS011;7070;53.586;9.692;2023-05-21T02:23:51;0.50;;;0.50;;
13991;SDS011;7070;53.586;9.692;2023-05-21T02:26:18;0.50;;;0.50;;
13991;SDS011;7070;53.586;9.692;2023-05-21T02:28:46;0.50;;;0.50;;
13991;SDS011;7070;53.586;9.692;2023-05-21T02:31:14;0.50;;;0.50;;
13991;SDS011;7070;53.586;9.692;2023-05-21T02:33:41;0.50;;;0.50;;
13991;SDS011;7070;53.586;9.692;2023-05-21T02:36:08;0.50;;;0.50;;
13991;SDS011;7070;53.586;9.692;2023-05-21T02:38:37;0.50;;;0.50;;
13991;SDS011;7070;53.586;9.692;2023-05-21T02:41:07;0.50;;;0.50;;
13991;SDS011;7070;53.586;9.692;2023-05-21T02:43:35;0.50;;;0.50;;
13991;SDS011;7070;53.586;9.692;2023-05-21T02:46:03;0.50;;;0.50;;
13991;SDS011;7070;53.586;9.692;2023-05-21T02:48:32;0.50;;;0.50;;
13991;SDS011;7070;53.586;9.692;2023-05-21T02:50:59;0.50;;;0.50;;
13991;SDS011;7070;53.586;9.692;2023-05-21T02:53:26;0.50;;;0.50;;
13991;SDS011;7070;53.586;9.692;2023-05-21T02:55:53;0.50;;;0.50;;
13991;SDS011;7070;53.586;9.692;2023-05-21T02:58:20;0.50;;;0.50;;
13991;SDS011;7070;53.586;9.692;2023-05-21T03:00:49;0.60;;;0.60;;
13991;SDS011;7070;53.586;9.692;2023-05-21T03:03:16;0.50;;;0.50;;
13991;SDS011;7070;53.586;9.692;2023-05-21T03:05:44;0.60;;;0.60;;
13991;SDS011;7070;53.586;9.692;2023-05-21T03:08:12;0.50;;;0.50;;
13991;SDS011;7070;53.586;9.692;2023-05-21T03:10:39;0.50;;;0.50;;
13991;SDS011;7070;53.586;9.692;2023-05-21T03:13:06;0.50;;;0.50;;
13991;SDS011;7070;53.586;9.692;2023-05-21T03:15:32;0.57;;;0.57;;
13991;SDS011;7070;53.586;9.692;2023-05-21T03:17:59;0.50;;;0.50;;
13991;SDS011;7070;53.586;9.692;2023-05-21T03:20:27;0.50;;;0.50;;
13991;SDS011;7070;53.586;9.692;2023-05-21T03:22:56;0.50;;;0.50;;
13991;SDS011;7070;53.586;9.692;2023-05-21T03:25:24;0.50;;;0.50;;
13991;SDS011;7070;53.586;9.692;2023-05-21T03:27:51;0.50;;;0.50;;
13991;SDS011;7070;53.586;9.692;2023-05-21T03:30:18;0.50;;;0.50;;
13991;SDS011;7070;53.586;9.692;2023-05-21T03:32:45;0.50;;;0.50;;
13991;SDS011;7070;53.586;9.692;2023-05-21T03:35:13;0.60;;;0.60;;
13991;SDS011;7070;53.586;9.692;2023-05-21T03:37:40;0.40;;;0.40;;
13991;SDS011;7070;53.586;9.692;2023-05-21T03:40:09;0.50;;;0.50;;
13991;SDS011;7070;53.586;9.692;2023-05-21T03:42:36;0.40;;;0.40;;
13991;SDS011;7070;53.586;9.692;2023-05-21T03:45:03;0.50;;;0.50;;
13991;SDS011;7070;53.586;9.692;2023-05-21T03:47:31;0.50;;;0.50;;
13991;SDS011;7070;53.586;9.692;2023-05-21T03:49:59;0.50;;;0.50;;
13991;SDS011;7070;53.586;9.692;2023-05-21T03:52:26;0.50;;;0.50;;
13991;SDS011;7070;53.586;9.692;2023-05-21T03:54:53;0.50;;;0.50;;
13991;SDS011;7070;53.586;9.692;2023-05-21T03:57:21;0.50;;;0.50;;
13991;SDS011;7070;53.586;9.692;2023-05-21T03:59:48;0.47;;;0.47;;
13991;SDS011;7070;53.586;9.692;2023-05-21T04:02:15;0.50;;;0.50;;
13991;SDS011;7070;53.586;9.692;2023-05-21T04:04:42;0.50;;;0.50;;
13991;SDS011;7070;53.586;9.692;2023-05-21T04:07:09;0.50;;;0.50;;
13991;SDS011;7070;53.586;9.692;2023-05-21T04:09:38;0.60;;;0.60;;
13991;SDS011;7070;53.586;9.692;2023-05-21T04:12:05;0.50;;;0.50;;
13991;SDS011;7070;53.586;9.692;2023-05-21T04:14:34;0.50;;;0.50;;
13991;SDS011;7070;53.586;9.692;2023-05-21T04:17:01;0.60;;;0.60;;
13991;SDS011;7070;53.586;9.692;2023-05-21T04:19:29;0.50;;;0.50;;
13991;SDS011;7070;53.586;9.692;2023-05-21T04:21:56;0.50;;;0.50;;
13991;SDS011;7070;53.586;9.692;2023-05-21T04:24:23;0.50;;;0.50;;
13991;SDS011;7070;53.586;9.692;2023-05-21T04:26:49;0.50;;;0.50;;
13991;SDS011;7070;53.586;9.692;2023-05-21T04:29:16;0.50;;;0.50;;
13991;SDS011;7070;53.586;9.692;2023-05-21T04:31:46;0.50;;;0.50;;
13991;SDS011;7070;53.586;9.692;2023-05-21T04:34:13;0.50;;;0.50;;
13991;SDS011;7070;53.586;9.692;2023-05-21T04:36:42;0.50;;;0.50;;
13991;SDS011;7070;53.586;9.692;2023-05-21T04:39:09;0.50;;;0.50;;
13991;SDS011;7070;53.586;9.692;2023-05-21T04:41:37;0.50;;;0.50;;
13991;SDS011;7070;53.586;9.692;2023-05-21T04:44:04;0.50;;;0.50;;
13991;SDS011;7070;53.586;9.692;2023-05-21T04:46:32;0.40;;;0.40;;
13991;SDS011;7070;53.586;9.692;2023-05-21T04:49:01;0.50;;;0.50;;
13991;SDS011;7070;53.586;9.692;2023-05-21T04:51:28;0.50;;;0.50;;
13991;SDS011;7070;53.586;9.692;2023-05-21T04:53:55;0.50;;;0.50;;
13991;SDS011;7070;53.586;9.692;2023-05-21T04:56:23;0.50;;;0.50;;
13991;SDS011;7070;53.586;9.692;2023-05-21T04:58:51;0.50;;;0.50;;
13991;SDS011;7070;53.586;9.692;2023-05-21T05:01:18;0.43;;;0.43;;
13991;SDS011;7070;53.586;9.692;2023-05-21T05:03:46;0.40;;;0.40;;
13991;SDS011;7070;53.586;9.692;2023-05-21T05:06:15;0.40;;;0.40;;
13991;SDS011;7070;53.586;9.692;2023-05-21T05:08:42;0.40;;;0.40;;
13991;SDS011;7070;53.586;9.692;2023-05-21T05:11:10;0.40;;;0.40;;
13991;SDS011;7070;53.586;9.692;2023-05-21T05:13:38;0.40;;;0.40;;
13991;SDS011;7070;53.586;9.692;2023-05-21T05:16:06;0.40;;;0.40;;
13991;SDS011;7070;53.586;9.692;2023-05-21T05:18:33;0.50;;;0.50;;
13991;SDS011;7070;53.586;9.692;2023-05-21T05:21:00;0.40;;;0.40;;
13991;SDS011;7070;53.586;9.692;2023-05-21T05:23:28;0.60;;;0.60;;
13991;SDS011;7070;53.586;9.692;2023-05-21T05:25:55;0.50;;;0.50;;
13991;SDS011;7070;53.586;9.692;2023-05-21T05:28:22;0.50;;;0.50;;
13991;SDS011;7070;53.586;9.692;2023-05-21T05:30:49;0.47;;;0.47;;
13991;SDS011;7070;53.586;9.692;2023-05-21T05:33:16;0.50;;;0.50;;
13991;SDS011;7070;53.586;9.692;2023-05-21T05:35:42;0.50;;;0.50;;
13991;SDS011;7070;53.586;9.692;2023-05-21T05:38:09;0.43;;;0.43;;
13991;SDS011;7070;53.586;9.692;2023-05-21T05:40:38;0.50;;;0.50;;
13991;SDS011;7070;53.586;9.692;2023-05-21T05:43:05;0.50;;;0.50;;
13991;SDS011;7070;53.586;9.692;2023-05-21T05:45:32;0.40;;;0.40;;
13991;SDS011;7070;53.586;9.692;2023-05-21T05:47:59;0.40;;;0.40;;
13991;SDS011;7070;53.586;9.692;2023-05-21T05:50:26;0.50;;;0.50;;
13991;SDS011;7070;53.586;9.692;2023-05-21T05:52:53;0.43;;;0.43;;
13991;SDS011;7070;53.586;9.692;2023-05-21T05:55:20;0.50;;;0.50;;
13991;SDS011;7070;53.586;9.692;2023-05-21T05:57:50;0.40;;;0.40;;
13991;SDS011;7070;53.586;9.692;2023-05-21T06:00:17;0.50;;;0.50;;
13991;SDS011;7070;53.586;9.692;2023-05-21T06:02:44;0.43;;;0.43;;
13991;SDS011;7070;53.586;9.692;2023-05-21T06:05:12;0.50;;;0.50;;
13991;SDS011;7070;53.586;9.692;2023-05-21T06:07:39;0.40;;;0.40;;
13991;SDS011;7070;53.586;9.692;2023-05-21T06:10:06;0.50;;;0.50;;
13991;SDS011;7070;53.586;9.692;2023-05-21T06:12:34;0.40;;;0.40;;
13991;SDS011;7070;53.586;9.692;2023-05-21T06:15:02;0.40;;;0.40;;
13991;SDS011;7070;53.586;9.692;2023-05-21T06:17:29;0.50;;;0.50;;
13991;SDS011;7070;53.586;9.692;2023-05-21T06:19:56;0.40;;;0.40;;
13991;SDS011;7070;53.586;9.692;2023-05-21T06:22:23;0.40;;;0.40;;
13991;SDS011;7070;53.586;9.692;2023-05-21T06:24:50;0.40;;;0.40;;
13991;SDS011;7070;53.586;9.692;2023-05-21T06:27:17;0.40;;;0.40;;
13991;SDS011;7070;53.586;9.692;2023-05-21T06:29:44;0.40;;;0.40;;
13991;SDS011;7070;53.586;9.692;2023-05-21T06:32:12;0.50;;;0.50;;
13991;SDS011;7070;53.586;9.692;2023-05-21T06:34:39;0.30;;;0.30;;
13991;SDS011;7070;53.586;9.692;2023-05-21T06:37:06;0.40;;;0.40;;
13991;SDS011;7070;53.586;9.692;2023-05-21T06:39:32;0.40;;;0.40;;
13991;SDS011;7070;53.586;9.692;2023-05-21T06:41:59;0.50;;;0.50;;
13991;SDS011;7070;53.586;9.692;2023-05-21T06:44:26;0.50;;;0.50;;
13991;SDS011;7070;53.586;9.692;2023-05-21T06:46:53;0.50;;;0.50;;
13991;SDS011;7070;53.586;9.692;2023-05-21T06:49:21;0.40;;;0.40;;
13991;SDS011;7070;53.586;9.692;2023-05-21T06:51:48;0.40;;;0.40;;
13991;SDS011;7070;53.586;9.692;2023-05-21T06:54:15;0.40;;;0.40;;
13991;SDS011;7070;53.586;9.692;2023-05-21T06:56:42;0.33;;;0.33;;
13991;SDS011;7070;53.586;9.692;2023-05-21T06:59:09;0.40;;;0.40;;
13991;SDS011;7070;53.586;9.692;2023-05-21T07:01:36;0.40;;;0.40;;
13991;SDS011;7070;53.586;9.692;2023-05-21T07:04:06;0.40;;;0.40;;
13991;SDS011;7070;53.586;9.692;2023-05-21T07:06:34;0.30;;;0.30;;
13991;SDS011;7070;53.586;9.692;2023-05-21T07:09:01;0.40;;;0.40;;
13991;SDS011;7070;53.586;9.692;2023-05-21T07:11:29;0.40;;;0.40;;
13991;SDS011;7070;53.586;9.692;2023-05-21T07:13:57;0.37;;;0.37;;
13991;SDS011;7070;53.586;9.692;2023-05-21T07:16:25;0.50;;;0.50;;
13991;SDS011;7070;53.586;9.692;2023-05-21T07:18:52;0.30;;;0.30;;
13991;SDS011;7070;53.586;9.692;2023-05-21T07:21:19;0.40;;;0.40;;
13991;SDS011;7070;53.586;9.692;2023-05-21T07:23:47;0.30;;;0.30;;
13991;SDS011;7070;53.586;9.692;2023-05-21T07:26:14;0.40;;;0.40;;
13991;SDS011;7070;53.586;9.692;2023-05-21T07:28:41;0.30;;;0.30;;
13991;SDS011;7070;53.586;9.692;2023-05-21T07:31:08;0.30;;;0.30;;
13991;SDS011;7070;53.586;9.692;2023-05-21T07:33:37;0.30;;;0.30;;
13991;SDS011;7070;53.586;9.692;2023-05-21T07:36:04;0.30;;;0.30;;
13991;SDS011;7070;53.586;9.692;2023-05-21T07:38:31;0.40;;;0.40;;
13991;SDS011;7070;53.586;9.692;2023-05-21T07:40:59;0.30;;;0.30;;
13991;SDS011;7070;53.586;9.692;2023-05-21T07:43:26;0.40;;;0.40;;
13991;SDS011;7070;53.586;9.692;2023-05-21T07:45:53;0.30;;;0.30;;
13991;SDS011;7070;53.586;9.692;2023-05-21T07:48:20;0.30;;;0.30;;
13991;SDS011;7070;53.586;9.692;2023-05-21T07:50:47;0.40;;;0.40;;
13991;SDS011;7070;53.586;9.692;2023-05-21T07:53:16;0.30;;;0.30;;
13991;SDS011;7070;53.586;9.692;2023-05-21T07:55:43;0.30;;;0.30;;
13991;SDS011;7070;53.586;9.692;2023-05-21T07:58:14;0.40;;;0.40;;
13991;SDS011;7070;53.586;9.692;2023-05-21T08:00:41;0.30;;;0.30;;
13991;SDS011;7070;53.586;9.692;2023-05-21T08:03:11;0.30;;;0.30;;
13991;SDS011;7070;53.586;9.692;2023-05-21T08:05:40;0.30;;;0.30;;
13991;SDS011;7070;53.586;9.692;2023-05-21T08:08:07;0.30;;;0.30;;
13991;SDS011;7070;53.586;9.692;2023-05-21T08:10:33;0.40;;;0.40;;
13991;SDS011;7070;53.586;9.692;2023-05-21T08:13:01;0.30;;;0.30;;
13991;SDS011;7070;53.586;9.692;2023-05-21T08:15:29;0.40;;;0.40;;
13991;SDS011;7070;53.586;9.692;2023-05-21T08:17:56;0.30;;;0.30;;
13991;SDS011;7070;53.586;9.692;2023-05-21T08:20:23;0.30;;;0.30;;
13991;SDS011;7070;53.586;9.692;2023-05-21T08:22:50;0.30;;;0.30;;
13991;SDS011;7070;53.586;9.692;2023-05-21T08:25:17;0.40;;;0.40;;
13991;SDS011;7070;53.586;9.692;2023-05-21T08:27:44;0.40;;;0.40;;
13991;SDS011;7070;53.586;9.692;2023-05-21T08:30:11;0.30;;;0.30;;
13991;SDS011;7070;53.586;9.692;2023-05-21T08:32:40;0.40;;;0.40;;
13991;SDS011;7070;53.586;9.692;2023-05-21T08:35:07;0.30;;;0.30;;
13991;SDS011;7070;53.586;9.692;2023-05-21T08:37:34;0.30;;;0.30;;
13991;SDS011;7070;53.586;9.692;2023-05-21T08:40:02;0.30;;;0.30;;
13991;SDS011;7070;53.586;9.692;2023-05-21T08:42:32;0.30;;;0.30;;
13991;SDS011;7070;53.586;9.692;2023-05-21T08:45:05;0.30;;;0.30;;
13991;SDS011;7070;53.586;9.692;2023-05-21T08:47:33;0.30;;;0.30;;
13991;SDS011;7070;53.586;9.692;2023-05-21T08:50:03;0.30;;;0.30;;
13991;SDS011;7070;53.586;9.692;2023-05-21T08:52:30;0.30;;;0.30;;
13991;SDS011;7070;53.586;9.692;2023-05-21T08:54:57;0.30;;;0.30;;
13991;SDS011;7070;53.586;9.692;2023-05-21T08:57:25;0.30;;;0.30;;
13991;SDS011;7070;53.586;9.692;2023-05-21T08:59:53;0.30;;;0.30;;
13991;SDS011;7070;53.586;9.692;2023-05-21T09:02:20;0.30;;;0.30;;
13991;SDS011;7070;53.586;9.692;2023-05-21T09:04:49;0.40;;;0.40;;
13991;SDS011;7070;53.586;9.692;2023-05-21T09:07:22;0.30;;;0.30;;
13991;SDS011;7070;53.586;9.692;2023-05-21T09:09:53;0.27;;;0.27;;
13991;SDS011;7070;53.586;9.692;2023-05-21T09:12:22;0.30;;;0.30;;
13991;SDS011;7070;53.586;9.692;2023-05-21T09:14:49;0.30;;;0.30;;
13991;SDS011;7070;53.586;9.692;2023-05-21T09:17:16;0.30;;;0.30;;
13991;SDS011;7070;53.586;9.692;2023-05-21T09:22:32;0.30;;;0.30;;
13991;SDS011;7070;53.586;9.692;2023-05-21T09:25:02;0.30;;;0.30;;
13991;SDS011;7070;53.586;9.692;2023-05-21T09:27:31;0.30;;;0.30;;
13991;SDS011;7070;53.586;9.692;2023-05-21T09:29:58;0.23;;;0.23;;
13991;SDS011;7070;53.586;9.692;2023-05-21T09:32:24;0.40;;;0.40;;
13991;SDS011;7070;53.586;9.692;2023-05-21T09:34:51;0.30;;;0.30;;
13991;SDS011;7070;53.586;9.692;2023-05-21T09:37:18;0.40;;;0.40;;
13991;SDS011;7070;53.586;9.692;2023-05-21T09:39:48;0.30;;;0.30;;
13991;SDS011;7070;53.586;9.692;2023-05-21T09:42:14;0.30;;;0.30;;
13991;SDS011;7070;53.586;9.692;2023-05-21T09:44:45;0.30;;;0.30;;
13991;SDS011;7070;53.586;9.692;2023-05-21T09:47:13;0.30;;;0.30;;
13991;SDS011;7070;53.586;9.692;2023-05-21T09:49:45;0.40;;;0.40;;
13991;SDS011;7070;53.586;9.692;2023-05-21T09:52:12;0.30;;;0.30;;
13991;SDS011;7070;53.586;9.692;2023-05-21T09:54:39;0.37;;;0.37;;
13991;SDS011;7070;53.586;9.692;2023-05-21T09:57:07;0.30;;;0.30;;
13991;SDS011;7070;53.586;9.692;2023-05-21T09:59:34;0.30;;;0.30;;
13991;SDS011;7070;53.586;9.692;2023-05-21T10:02:01;0.30;;;0.30;;
13991;SDS011;7070;53.586;9.692;2023-05-21T10:04:28;0.30;;;0.30;;
13991;SDS011;7070;53.586;9.692;2023-05-21T10:06:56;0.40;;;0.40;;
13991;SDS011;7070;53.586;9.692;2023-05-21T10:09:25;0.33;;;0.33;;
13991;SDS011;7070;53.586;9.692;2023-05-21T10:11:54;0.30;;;0.30;;
13991;SDS011;7070;53.586;9.692;2023-05-21T10:14:24;0.30;;;0.30;;
13991;SDS011;7070;53.586;9.692;2023-05-21T10:16:53;0.30;;;0.30;;
13991;SDS011;7070;53.586;9.692;2023-05-21T10:19:20;0.30;;;0.30;;
13991;SDS011;7070;53.586;9.692;2023-05-21T10:21:49;0.30;;;0.30;;
13991;SDS011;7070;53.586;9.692;2023-05-21T10:24:18;0.30;;;0.30;;
13991;SDS011;7070;53.586;9.692;2023-05-21T10:26:45;0.30;;;0.30;;
13991;SDS011;7070;53.586;9.692;2023-05-21T10:29:14;0.30;;;0.30;;
13991;SDS011;7070;53.586;9.692;2023-05-21T10:31:43;0.30;;;0.30;;
13991;SDS011;7070;53.586;9.692;2023-05-21T10:34:13;0.30;;;0.30;;
13991;SDS011;7070;53.586;9.692;2023-05-21T10:36:40;0.30;;;0.30;;
13991;SDS011;7070;53.586;9.692;2023-05-21T10:39:10;0.30;;;0.30;;
13991;SDS011;7070;53.586;9.692;2023-05-21T10:41:40;0.30;;;0.30;;
13991;SDS011;7070;53.586;9.692;2023-05-21T10:44:16;0.30;;;0.30;;
13991;SDS011;7070;53.586;9.692;2023-05-21T10:46:59;0.30;;;0.30;;
13991;SDS011;7070;53.586;9.692;2023-05-21T10:52:36;0.30;;;0.30;;
13991;SDS011;7070;53.586;9.692;2023-05-21T10:55:16;0.30;;;0.30;;
13991;SDS011;7070;53.586;9.692;2023-05-21T11:00:55;0.30;;;0.30;;
13991;SDS011;7070;53.586;9.692;2023-05-21T11:03:25;0.30;;;0.30;;
13991;SDS011;7070;53.586;9.692;2023-05-21T11:05:53;0.30;;;0.30;;
13991;SDS011;7070;53.586;9.692;2023-05-21T11:08:21;0.30;;;0.30;;
13991;SDS011;7070;53.586;9.692;2023-05-21T11:10:53;0.22;;;0.22;;
13991;SDS011;7070;53.586;9.692;2023-05-21T11:13:22;0.30;;;0.30;;
13991;SDS011;7070;53.586;9.692;2023-05-21T11:16:05;0.30;;;0.30;;
13991;SDS011;7070;53.586;9.692;2023-05-21T11:21:29;0.30;;;0.30;;
13991;SDS011;7070;53.586;9.692;2023-05-21T11:23:59;0.30;;;0.30;;
13991;SDS011;7070;53.586;9.692;2023-05-21T11:26:28;0.30;;;0.30;;
13991;SDS011;7070;53.586;9.692;2023-05-21T11:29:16;0.30;;;0.30;;
13991;SDS011;7070;53.586;9.692;2023-05-21T11:31:44;0.30;;;0.30;;
13991;SDS011;7070;53.586;9.692;2023-05-21T11:34:12;0.30;;;0.30;;
13991;SDS011;7070;53.586;9.692;2023-05-21T11:36:40;0.30;;;0.30;;
13991;SDS011;7070;53.586;9.692;2023-05-21T11:39:09;0.30;;;0.30;;
13991;SDS011;7070;53.586;9.692;2023-05-21T11:44:36;0.30;;;0.30;;
13991;SDS011;7070;53.586;9.692;2023-05-21T11:47:05;0.20;;;0.20;;
13991;SDS011;7070;53.586;9.692;2023-05-21T11:49:34;0.30;;;0.30;;
13991;SDS011;7070;53.586;9.692;2023-05-21T11:52:02;0.30;;;0.30;;
13991;SDS011;7070;53.586;9.692;2023-05-21T11:54:30;0.30;;;0.30;;
13991;SDS011;7070;53.586;9.692;2023-05-21T11:57:01;0.30;;;0.30;;
13991;SDS011;7070;53.586;9.692;2023-05-21T11:59:30;0.30;;;0.30;;
13991;SDS011;7070;53.586;9.692;2023-05-21T12:01:58;0.30;;;0.30;;
13991;SDS011;7070;53.586;9.692;2023-05-21T12:04:28;0.30;;;0.30;;
13991;SDS011;7070;53.586;9.692;2023-05-21T12:06:56;0.30;;;0.30;;
13991;SDS011;7070;53.586;9.692;2023-05-21T12:09:23;0.30;;;0.30;;
13991;SDS011;7070;53.586;9.692;2023-05-21T12:11:50;0.30;;;0.30;;
13991;SDS011;7070;53.586;9.692;2023-05-21T12:14:18;0.20;;;0.20;;
13991;SDS011;7070;53.586;9.692;2023-05-21T12:16:47;0.20;;;0.20;;
13991;SDS011;7070;53.586;9.692;2023-05-21T12:19:15;0.30;;;0.30;;
13991;SDS011;7070;53.586;9.692;2023-05-21T12:21:42;0.40;;;0.40;;
13991;SDS011;7070;53.586;9.692;2023-05-21T12:24:11;0.20;;;0.20;;
13991;SDS011;7070;53.586;9.692;2023-05-21T12:26:38;0.30;;;0.30;;
13991;SDS011;7070;53.586;9.692;2023-05-21T12:29:06;0.30;;;0.30;;
13991;SDS011;7070;53.586;9.692;2023-05-21T12:31:33;0.40;;;0.40;;
13991;SDS011;7070;53.586;9.692;2023-05-21T12:34:13;0.30;;;0.30;;
13991;SDS011;7070;53.586;9.692;2023-05-21T12:36:42;0.30;;;0.30;;
13991;SDS011;7070;53.586;9.692;2023-05-21T12:39:13;0.30;;;0.30;;
13991;SDS011;7070;53.586;9.692;2023-05-21T12:41:41;0.30;;;0.30;;
13991;SDS011;7070;53.586;9.692;2023-05-21T12:44:10;0.20;;;0.20;;
13991;SDS011;7070;53.586;9.692;2023-05-21T12:46:36;0.30;;;0.30;;
13991;SDS011;7070;53.586;9.692;2023-05-21T12:49:03;0.30;;;0.30;;
13991;SDS011;7070;53.586;9.692;2023-05-21T12:51:36;0.30;;;0.30;;
13991;SDS011;7070;53.586;9.692;2023-05-21T12:54:10;0.20;;;0.20;;
13991;SDS011;7070;53.586;9.692;2023-05-21T12:56:44;0.22;;;0.22;;
13991;SDS011;7070;53.586;9.692;2023-05-21T12:59:11;0.30;;;0.30;;
13991;SDS011;7070;53.586;9.692;2023-05-21T13:01:39;0.20;;;0.20;;
13991;SDS011;7070;53.586;9.692;2023-05-21T13:04:06;0.10;;;0.10;;
13991;SDS011;7070;53.586;9.692;2023-05-21T13:06:40;0.30;;;0.30;;
13991;SDS011;7070;53.586;9.692;2023-05-21T13:09:07;0.22;;;0.22;;
13991;SDS011;7070;53.586;9.692;2023-05-21T13:11:34;0.20;;;0.20;;
13991;SDS011;7070;53.586;9.692;2023-05-21T13:14:02;0.17;;;0.17;;
13991;SDS011;7070;53.586;9.692;2023-05-21T13:16:29;0.30;;;0.30;;
13991;SDS011;7070;53.586;9.692;2023-05-21T13:18:56;0.20;;;0.20;;
13991;SDS011;7070;53.586;9.692;2023-05-21T13:21:23;0.30;;;0.30;;
13991;SDS011;7070;53.586;9.692;2023-05-21T13:23:50;0.30;;;0.30;;
13991;SDS011;7070;53.586;9.692;2023-05-21T13:26:16;0.20;;;0.20;;
13991;SDS011;7070;53.586;9.692;2023-05-21T13:28:43;0.20;;;0.20;;
13991;SDS011;7070;53.586;9.692;2023-05-21T13:31:12;0.25;;;0.25;;
13991;SDS011;7070;53.586;9.692;2023-05-21T13:33:40;0.20;;;0.20;;
13991;SDS011;7070;53.586;9.692;2023-05-21T13:36:07;0.30;;;0.30;;
13991;SDS011;7070;53.586;9.692;2023-05-21T13:38:34;0.20;;;0.20;;
13991;SDS011;7070;53.586;9.692;2023-05-21T13:41:01;0.20;;;0.20;;
13991;SDS011;7070;53.586;9.692;2023-05-21T13:43:28;0.30;;;0.30;;
13991;SDS011;7070;53.586;9.692;2023-05-21T13:45:54;0.30;;;0.30;;
13991;SDS011;7070;53.586;9.692;2023-05-21T13:48:23;0.30;;;0.30;;
13991;SDS011;7070;53.586;9.692;2023-05-21T13:50:49;0.22;;;0.22;;
13991;SDS011;7070;53.586;9.692;2023-05-21T13:53:16;0.20;;;0.20;;
13991;SDS011;7070;53.586;9.692;2023-05-21T13:55:43;0.30;;;0.30;;
13991;SDS011;7070;53.586;9.692;2023-05-21T13:58:10;0.20;;;0.20;;
13991;SDS011;7070;53.586;9.692;2023-05-21T14:00:37;0.25;;;0.25;;
13991;SDS011;7070;53.586;9.692;2023-05-21T14:03:05;0.20;;;0.20;;
13991;SDS011;7070;53.586;9.692;2023-05-21T14:05:35;0.30;;;0.30;;
13991;SDS011;7070;53.586;9.692;2023-05-21T14:08:02;0.20;;;0.20;;
13991;SDS011;7070;53.586;9.692;2023-05-21T14:10:29;0.20;;;0.20;;
13991;SDS011;7070;53.586;9.692;2023-05-21T14:12:56;0.30;;;0.30;;
13991;SDS011;7070;53.586;9.692;2023-05-21T14:15:22;0.30;;;0.30;;
13991;SDS011;7070;53.586;9.692;2023-05-21T14:17:49;0.30;;;0.30;;
13991;SDS011;7070;53.586;9.692;2023-05-21T14:20:17;0.30;;;0.30;;
13991;SDS011;7070;53.586;9.692;2023-05-21T14:22:45;0.30;;;0.30;;
13991;SDS011;7070;53.586;9.692;2023-05-21T14:25:12;0.30;;;0.30;;
13991;SDS011;7070;53.586;9.692;2023-05-21T14:27:39;0.20;;;0.20;;
13991;SDS011;7070;53.586;9.692;2023-05-21T14:30:06;0.30;;;0.30;;
13991;SDS011;7070;53.586;9.692;2023-05-21T14:32:34;0.20;;;0.20;;
13991;SDS011;7070;53.586;9.692;2023-05-21T14:35:01;0.30;;;0.30;;
13991;SDS011;7070;53.586;9.692;2023-05-21T14:37:28;0.30;;;0.30;;
13991;SDS011;7070;53.586;9.692;2023-05-21T14:39:57;0.20;;;0.20;;
13991;SDS011;7070;53.586;9.692;2023-05-21T14:42:24;0.30;;;0.30;;
13991;SDS011;7070;53.586;9.692;2023-05-21T14:44:50;0.20;;;0.20;;
13991;SDS011;7070;53.586;9.692;2023-05-21T14:47:17;0.30;;;0.30;;
13991;SDS011;7070;53.586;9.692;2023-05-21T14:49:44;0.28;;;0.28;;
13991;SDS011;7070;53.586;9.692;2023-05-21T14:52:11;0.25;;;0.25;;
13991;SDS011;7070;53.586;9.692;2023-05-21T14:54:38;0.20;;;0.20;;
13991;SDS011;7070;53.586;9.692;2023-05-21T14:57:06;0.20;;;0.20;;
13991;SDS011;7070;53.586;9.692;2023-05-21T14:59:33;0.30;;;0.30;;
13991;SDS011;7070;53.586;9.692;2023-05-21T15:02:00;0.30;;;0.30;;
13991;SDS011;7070;53.586;9.692;2023-05-21T15:04:26;0.20;;;0.20;;
13991;SDS011;7070;53.586;9.692;2023-05-21T15:06:53;0.30;;;0.30;;
13991;SDS011;7070;53.586;9.692;2023-05-21T15:09:20;0.30;;;0.30;;
13991;SDS011;7070;53.586;9.692;2023-05-21T15:11:47;0.20;;;0.20;;
13991;SDS011;7070;53.586;9.692;2023-05-21T15:14:17;0.20;;;0.20;;
13991;SDS011;7070;53.586;9.692;2023-05-21T15:16:44;0.20;;;0.20;;
13991;SDS011;7070;53.586;9.692;2023-05-21T15:19:11;0.20;;;0.20;;